sensor_id;sensor_type;location;lat;lon;timestamp;P1;durP1;ratioP1;P2;durP2;ratioP2
62010;SDS011;47967;51.756;10.174;2023-02-28T05:03:46;1.52;;;1.42;;
62010;SDS011;47967;51.756;10.174;2023-02-28T05:07:49;1.85;;;1.40;;
62010;SDS011;47967;51.756;10.174;2023-02-28T05:11:52;2.47;;;1.50;;
62010;SDS011;47967;51.756;10.174;2023-02-28T05:15:54;2.60;;;1.57;;
62010;SDS011;47967;51.756;10.174;2023-02-28T05:19:58;5.32;;;1.80;;
62010;SDS011;47967;51.756;10.174;2023-02-28T05:24:15;2.90;;;1.80;;
62010;SDS011;47967;51.756;10.174;2023-02-28T05:28:24;3.13;;;1.70;;
62010;SDS011;47967;51.756;10.174;2023-02-28T05:32:27;2.30;;;1.60;;
62010;SDS011;47967;51.756;10.174;2023-02-28T05:36:31;2.72;;;1.83;;
62010;SDS011;47967;51.756;10.174;2023-02-28T05:40:34;6.15;;;2.00;;
62010;SDS011;47967;51.756;10.174;2023-02-28T05:44:37;2.10;;;1.83;;
62010;SDS011;47967;51.756;10.174;2023-02-28T05:48:40;3.20;;;2.57;;
62010;SDS011;47967;51.756;10.174;2023-02-28T05:52:45;9.93;;;2.60;;
62010;SDS011;47967;51.756;10.174;2023-02-28T05:56:51;2.53;;;1.75;;
62010;SDS011;47967;51.756;10.174;2023-02-28T06:00:54;3.63;;;1.80;;
62010;SDS011;47967;51.756;10.174;2023-02-28T06:04:56;4.57;;;1.98;;
62010;SDS011;47967;51.756;10.174;2023-02-28T06:09:00;2.80;;;1.73;;
62010;SDS011;47967;51.756;10.174;2023-02-28T06:13:03;2.30;;;1.60;;
62010;SDS011;47967;51.756;10.174;2023-02-28T06:17:08;3.00;;;1.80;;
62010;SDS011;47967;51.756;10.174;2023-02-28T06:21:11;3.67;;;1.80;;
62010;SDS011;47967;51.756;10.174;2023-02-28T06:25:16;2.95;;;1.70;;
62010;SDS011;47967;51.756;10.174;2023-02-28T06:29:19;11.43;;;2.70;;
62010;SDS011;47967;51.756;10.174;2023-02-28T06:33:22;9.05;;;2.67;;
62010;SDS011;47967;51.756;10.174;2023-02-28T06:37:24;5.23;;;2.30;;
62010;SDS011;47967;51.756;10.174;2023-02-28T06:41:29;6.93;;;2.60;;
62010;SDS011;47967;51.756;10.174;2023-02-28T06:45:53;8.85;;;2.38;;
62010;SDS011;47967;51.756;10.174;2023-02-28T06:49:57;5.40;;;2.63;;
62010;SDS011;47967;51.756;10.174;2023-02-28T06:53:59;18.10;;;4.20;;
62010;SDS011;47967;51.756;10.174;2023-02-28T06:58:03;12.13;;;3.67;;
62010;SDS011;47967;51.756;10.174;2023-02-28T07:02:16;4.32;;;3.17;;
62010;SDS011;47967;51.756;10.174;2023-02-28T07:06:18;8.38;;;3.38;;
62010;SDS011;47967;51.756;10.174;2023-02-28T07:10:21;9.07;;;2.88;;
62010;SDS011;47967;51.756;10.174;2023-02-28T07:14:25;6.20;;;2.90;;
62010;SDS011;47967;51.756;10.174;2023-02-28T07:18:27;4.78;;;2.88;;
62010;SDS011;47967;51.756;10.174;2023-02-28T07:22:30;7.17;;;3.10;;
62010;SDS011;47967;51.756;10.174;2023-02-28T07:26:32;7.25;;;3.00;;
62010;SDS011;47967;51.756;10.174;2023-02-28T07:30:37;6.75;;;3.13;;
62010;SDS011;47967;51.756;10.174;2023-02-28T07:34:40;4.43;;;2.78;;
62010;SDS011;47967;51.756;10.174;2023-02-28T07:38:43;13.70;;;3.83;;
62010;SDS011;47967;51.756;10.174;2023-02-28T07:42:48;6.78;;;3.05;;
62010;SDS011;47967;51.756;10.174;2023-02-28T07:46:52;7.63;;;2.97;;
62010;SDS011;47967;51.756;10.174;2023-02-28T07:50:55;5.65;;;2.95;;
62010;SDS011;47967;51.756;10.174;2023-02-28T07:54:58;6.95;;;3.90;;
62010;SDS011;47967;51.756;10.174;2023-02-28T07:59:00;4.97;;;3.17;;
62010;SDS011;47967;51.756;10.174;2023-02-28T08:03:05;7.18;;;2.83;;
62010;SDS011;47967;51.756;10.174;2023-02-28T08:07:07;5.13;;;2.95;;
62010;SDS011;47967;51.756;10.174;2023-02-28T08:15:13;4.93;;;3.08;;
62010;SDS011;47967;51.756;10.174;2023-02-28T08:19:17;6.37;;;3.30;;
62010;SDS011;47967;51.756;10.174;2023-02-28T08:23:19;13.65;;;3.50;;
62010;SDS011;47967;51.756;10.174;2023-02-28T08:27:22;5.97;;;3.10;;
62010;SDS011;47967;51.756;10.174;2023-02-28T08:31:25;4.87;;;3.10;;
62010;SDS011;47967;51.756;10.174;2023-02-28T08:35:29;6.03;;;3.55;;
62010;SDS011;47967;51.756;10.174;2023-02-28T08:39:33;4.80;;;2.85;;
62010;SDS011;47967;51.756;10.174;2023-02-28T08:43:36;4.38;;;2.95;;
62010;SDS011;47967;51.756;10.174;2023-02-28T08:47:39;7.38;;;2.92;;
62010;SDS011;47967;51.756;10.174;2023-02-28T08:51:43;5.22;;;3.00;;
62010;SDS011;47967;51.756;10.174;2023-02-28T08:55:45;5.35;;;3.22;;
62010;SDS011;47967;51.756;10.174;2023-02-28T08:59:48;6.40;;;2.80;;
62010;SDS011;47967;51.756;10.174;2023-02-28T09:03:51;4.67;;;2.83;;
62010;SDS011;47967;51.756;10.174;2023-02-28T09:07:55;4.28;;;2.78;;
62010;SDS011;47967;51.756;10.174;2023-02-28T09:11:57;8.15;;;3.00;;
62010;SDS011;47967;51.756;10.174;2023-02-28T09:16:01;3.75;;;2.50;;
62010;SDS011;47967;51.756;10.174;2023-02-28T09:20:06;3.25;;;2.13;;
62010;SDS011;47967;51.756;10.174;2023-02-28T09:24:11;3.88;;;2.53;;
62010;SDS011;47967;51.756;10.174;2023-02-28T09:28:15;3.88;;;2.10;;
62010;SDS011;47967;51.756;10.174;2023-02-28T09:36:21;4.60;;;2.10;;
62010;SDS011;47967;51.756;10.174;2023-02-28T09:40:36;3.35;;;2.30;;
62010;SDS011;47967;51.756;10.174;2023-02-28T09:44:43;4.43;;;2.40;;
62010;SDS011;47967;51.756;10.174;2023-02-28T09:48:48;3.30;;;1.95;;
62010;SDS011;47967;51.756;10.174;2023-02-28T09:52:53;3.67;;;2.00;;
62010;SDS011;47967;51.756;10.174;2023-02-28T09:56:59;4.15;;;1.98;;
62010;SDS011;47967;51.756;10.174;2023-02-28T10:01:09;2.78;;;1.50;;
62010;SDS011;47967;51.756;10.174;2023-02-28T10:05:20;2.93;;;1.63;;
62010;SDS011;47967;51.756;10.174;2023-02-28T10:09:29;6.10;;;1.77;;
62010;SDS011;47967;51.756;10.174;2023-02-28T10:13:37;2.58;;;1.85;;
62010;SDS011;47967;51.756;10.174;2023-02-28T10:17:48;2.28;;;1.58;;
62010;SDS011;47967;51.756;10.174;2023-02-28T10:22:10;2.20;;;1.65;;
62010;SDS011;47967;51.756;10.174;2023-02-28T10:26:17;2.53;;;1.80;;
62010;SDS011;47967;51.756;10.174;2023-02-28T10:30:21;2.55;;;1.50;;
62010;SDS011;47967;51.756;10.174;2023-02-28T10:34:23;3.00;;;1.85;;
62010;SDS011;47967;51.756;10.174;2023-02-28T10:38:27;3.85;;;1.85;;
62010;SDS011;47967;51.756;10.174;2023-02-28T10:42:34;2.75;;;1.77;;
62010;SDS011;47967;51.756;10.174;2023-02-28T10:46:41;3.13;;;1.73;;
62010;SDS011;47967;51.756;10.174;2023-02-28T10:50:50;3.03;;;1.65;;
62010;SDS011;47967;51.756;10.174;2023-02-28T10:54:56;2.97;;;1.70;;
62010;SDS011;47967;51.756;10.174;2023-02-28T10:59:27;3.13;;;2.00;;
62010;SDS011;47967;51.756;10.174;2023-02-28T11:03:34;3.97;;;1.90;;
62010;SDS011;47967;51.756;10.174;2023-02-28T11:07:37;4.20;;;1.52;;
62010;SDS011;47967;51.756;10.174;2023-02-28T11:11:53;2.75;;;1.63;;
62010;SDS011;47967;51.756;10.174;2023-02-28T11:15:56;2.13;;;1.57;;
62010;SDS011;47967;51.756;10.174;2023-02-28T11:20:04;3.10;;;2.20;;
62010;SDS011;47967;51.756;10.174;2023-02-28T11:24:21;3.22;;;1.80;;
62010;SDS011;47967;51.756;10.174;2023-02-28T11:28:28;2.92;;;1.95;;
62010;SDS011;47967;51.756;10.174;2023-02-28T11:32:32;2.28;;;1.67;;
62010;SDS011;47967;51.756;10.174;2023-02-28T11:36:36;3.17;;;1.87;;
62010;SDS011;47967;51.756;10.174;2023-02-28T11:40:46;4.13;;;1.80;;
62010;SDS011;47967;51.756;10.174;2023-02-28T11:45:03;3.75;;;1.85;;
62010;SDS011;47967;51.756;10.174;2023-02-28T11:49:21;4.95;;;2.13;;
62010;SDS011;47967;51.756;10.174;2023-02-28T11:53:42;3.63;;;2.17;;
62010;SDS011;47967;51.756;10.174;2023-02-28T11:58:14;3.38;;;2.13;;
62010;SDS011;47967;51.756;10.174;2023-02-28T12:02:26;3.17;;;1.92;;
62010;SDS011;47967;51.756;10.174;2023-02-28T12:06:33;4.53;;;1.88;;
62010;SDS011;47967;51.756;10.174;2023-02-28T12:10:51;4.18;;;2.00;;
62010;SDS011;47967;51.756;10.174;2023-02-28T12:15:20;5.00;;;2.63;;
62010;SDS011;47967;51.756;10.174;2023-02-28T12:19:31;4.18;;;2.08;;
62010;SDS011;47967;51.756;10.174;2023-02-28T12:23:45;3.42;;;2.10;;
62010;SDS011;47967;51.756;10.174;2023-02-28T12:27:59;7.30;;;2.38;;
62010;SDS011;47967;51.756;10.174;2023-02-28T12:32:03;3.10;;;2.33;;
62010;SDS011;47967;51.756;10.174;2023-02-28T12:36:09;3.53;;;2.45;;
62010;SDS011;47967;51.756;10.174;2023-02-28T12:40:19;3.67;;;2.25;;
62010;SDS011;47967;51.756;10.174;2023-02-28T12:44:26;5.10;;;2.67;;
62010;SDS011;47967;51.756;10.174;2023-02-28T12:48:36;3.85;;;2.50;;
62010;SDS011;47967;51.756;10.174;2023-02-28T12:52:46;6.50;;;2.40;;
62010;SDS011;47967;51.756;10.174;2023-02-28T12:56:56;3.70;;;2.30;;
62010;SDS011;47967;51.756;10.174;2023-02-28T13:01:22;4.15;;;2.50;;
62010;SDS011;47967;51.756;10.174;2023-02-28T13:05:41;8.55;;;2.60;;
62010;SDS011;47967;51.756;10.174;2023-02-28T13:09:58;5.30;;;2.45;;
62010;SDS011;47967;51.756;10.174;2023-02-28T13:14:03;4.32;;;2.50;;
62010;SDS011;47967;51.756;10.174;2023-02-28T13:18:20;4.13;;;2.30;;
62010;SDS011;47967;51.756;10.174;2023-02-28T13:22:39;3.90;;;2.53;;
62010;SDS011;47967;51.756;10.174;2023-02-28T13:27:11;3.10;;;2.60;;
62010;SDS011;47967;51.756;10.174;2023-02-28T13:31:25;4.28;;;2.40;;
62010;SDS011;47967;51.756;10.174;2023-02-28T13:39:48;3.42;;;2.80;;
62010;SDS011;47967;51.756;10.174;2023-02-28T13:44:02;6.80;;;2.97;;
62010;SDS011;47967;51.756;10.174;2023-02-28T13:48:16;4.97;;;2.90;;
62010;SDS011;47967;51.756;10.174;2023-02-28T13:52:23;5.75;;;2.88;;
62010;SDS011;47967;51.756;10.174;2023-02-28T13:56:28;4.05;;;2.70;;
62010;SDS011;47967;51.756;10.174;2023-02-28T14:00:46;6.57;;;2.65;;
62010;SDS011;47967;51.756;10.174;2023-02-28T14:05:12;5.32;;;3.20;;
62010;SDS011;47967;51.756;10.174;2023-02-28T14:09:21;5.45;;;3.40;;
62010;SDS011;47967;51.756;10.174;2023-02-28T14:13:37;4.80;;;2.90;;
62010;SDS011;47967;51.756;10.174;2023-02-28T14:17:46;5.90;;;3.03;;
62010;SDS011;47967;51.756;10.174;2023-02-28T14:21:58;6.20;;;3.33;;
62010;SDS011;47967;51.756;10.174;2023-02-28T14:26:16;8.10;;;3.10;;
62010;SDS011;47967;51.756;10.174;2023-02-28T14:30:51;5.10;;;3.35;;
62010;SDS011;47967;51.756;10.174;2023-02-28T14:35:03;5.45;;;3.10;;
62010;SDS011;47967;51.756;10.174;2023-02-28T14:39:20;6.20;;;3.53;;
62010;SDS011;47967;51.756;10.174;2023-02-28T14:43:27;5.68;;;3.20;;
62010;SDS011;47967;51.756;10.174;2023-02-28T14:47:31;6.75;;;3.33;;
62010;SDS011;47967;51.756;10.174;2023-02-28T14:51:35;6.85;;;3.28;;
62010;SDS011;47967;51.756;10.174;2023-02-28T14:55:43;5.17;;;3.33;;
62010;SDS011;47967;51.756;10.174;2023-02-28T14:59:56;5.20;;;2.72;;
62010;SDS011;47967;51.756;10.174;2023-02-28T15:04:01;4.70;;;2.80;;
62010;SDS011;47967;51.756;10.174;2023-02-28T15:08:09;5.47;;;3.20;;
62010;SDS011;47967;51.756;10.174;2023-02-28T15:12:15;5.35;;;3.30;;
62010;SDS011;47967;51.756;10.174;2023-02-28T15:16:19;6.97;;;3.53;;
62010;SDS011;47967;51.756;10.174;2023-02-28T15:20:23;5.63;;;3.25;;
62010;SDS011;47967;51.756;10.174;2023-02-28T15:24:30;5.47;;;3.42;;
62010;SDS011;47967;51.756;10.174;2023-02-28T15:28:39;4.70;;;3.20;;
62010;SDS011;47967;51.756;10.174;2023-02-28T15:32:43;7.05;;;3.58;;
62010;SDS011;47967;51.756;10.174;2023-02-28T15:36:46;6.18;;;3.50;;
62010;SDS011;47967;51.756;10.174;2023-02-28T15:40:50;5.47;;;3.30;;
62010;SDS011;47967;51.756;10.174;2023-02-28T15:44:55;5.35;;;3.55;;
62010;SDS011;47967;51.756;10.174;2023-02-28T15:48:59;5.30;;;3.38;;
62010;SDS011;47967;51.756;10.174;2023-02-28T15:53:02;6.35;;;3.90;;
62010;SDS011;47967;51.756;10.174;2023-02-28T15:57:06;6.18;;;3.28;;
62010;SDS011;47967;51.756;10.174;2023-02-28T16:01:20;6.50;;;3.40;;
62010;SDS011;47967;51.756;10.174;2023-02-28T16:05:34;5.93;;;3.55;;
62010;SDS011;47967;51.756;10.174;2023-02-28T16:09:36;6.93;;;4.20;;
62010;SDS011;47967;51.756;10.174;2023-02-28T16:13:39;7.63;;;3.90;;
62010;SDS011;47967;51.756;10.174;2023-02-28T16:17:42;6.63;;;3.80;;
62010;SDS011;47967;51.756;10.174;2023-02-28T16:21:47;9.80;;;4.50;;
62010;SDS011;47967;51.756;10.174;2023-02-28T16:25:50;6.75;;;4.68;;
62010;SDS011;47967;51.756;10.174;2023-02-28T16:29:52;8.10;;;4.40;;
62010;SDS011;47967;51.756;10.174;2023-02-28T16:33:55;8.10;;;4.63;;
62010;SDS011;47967;51.756;10.174;2023-02-28T16:38:00;6.65;;;4.03;;
62010;SDS011;47967;51.756;10.174;2023-02-28T16:42:03;11.00;;;5.45;;
62010;SDS011;47967;51.756;10.174;2023-02-28T16:46:07;11.63;;;5.53;;
62010;SDS011;47967;51.756;10.174;2023-02-28T16:50:14;9.95;;;5.03;;
62010;SDS011;47967;51.756;10.174;2023-02-28T16:54:19;25.10;;;11.23;;
62010;SDS011;47967;51.756;10.174;2023-02-28T16:58:22;8.15;;;4.70;;
62010;SDS011;47967;51.756;10.174;2023-02-28T17:02:26;8.82;;;4.60;;
62010;SDS011;47967;51.756;10.174;2023-02-28T17:06:30;9.47;;;4.93;;
62010;SDS011;47967;51.756;10.174;2023-02-28T17:10:34;8.75;;;5.45;;
62010;SDS011;47967;51.756;10.174;2023-02-28T17:14:37;9.10;;;5.25;;
62010;SDS011;47967;51.756;10.174;2023-02-28T17:18:40;10.98;;;6.60;;
62010;SDS011;47967;51.756;10.174;2023-02-28T17:22:43;10.17;;;5.77;;
62010;SDS011;47967;51.756;10.174;2023-02-28T17:26:47;14.23;;;7.30;;
62010;SDS011;47967;51.756;10.174;2023-02-28T17:30:50;13.15;;;7.35;;
62010;SDS011;47967;51.756;10.174;2023-02-28T17:34:53;16.67;;;8.32;;
62010;SDS011;47967;51.756;10.174;2023-02-28T17:38:55;9.90;;;6.17;;
62010;SDS011;47967;51.756;10.174;2023-02-28T17:43:00;18.25;;;8.90;;
62010;SDS011;47967;51.756;10.174;2023-02-28T17:47:05;9.43;;;5.38;;
62010;SDS011;47967;51.756;10.174;2023-02-28T17:51:09;10.15;;;5.75;;
62010;SDS011;47967;51.756;10.174;2023-02-28T17:55:13;8.25;;;5.00;;
62010;SDS011;47967;51.756;10.174;2023-02-28T17:59:17;11.52;;;5.63;;
62010;SDS011;47967;51.756;10.174;2023-02-28T18:03:20;17.00;;;7.13;;
62010;SDS011;47967;51.756;10.174;2023-02-28T18:07:23;16.03;;;7.40;;
62010;SDS011;47967;51.756;10.174;2023-02-28T18:15:44;14.13;;;7.03;;
62010;SDS011;47967;51.756;10.174;2023-02-28T18:19:46;9.60;;;5.43;;
62010;SDS011;47967;51.756;10.174;2023-02-28T18:23:49;11.00;;;6.40;;
62010;SDS011;47967;51.756;10.174;2023-02-28T18:27:53;11.00;;;6.03;;
62010;SDS011;47967;51.756;10.174;2023-02-28T18:31:59;12.38;;;5.82;;
62010;SDS011;47967;51.756;10.174;2023-02-28T18:36:04;12.20;;;6.65;;
62010;SDS011;47967;51.756;10.174;2023-02-28T18:40:08;13.75;;;6.85;;
62010;SDS011;47967;51.756;10.174;2023-02-28T18:44:11;23.40;;;13.07;;
62010;SDS011;47967;51.756;10.174;2023-02-28T18:48:22;13.68;;;6.60;;
62010;SDS011;47967;51.756;10.174;2023-02-28T18:52:27;12.95;;;6.35;;
62010;SDS011;47967;51.756;10.174;2023-02-28T18:56:29;14.17;;;6.30;;
62010;SDS011;47967;51.756;10.174;2023-02-28T19:00:32;11.93;;;6.68;;
62010;SDS011;47967;51.756;10.174;2023-02-28T19:04:36;11.45;;;6.13;;
62010;SDS011;47967;51.756;10.174;2023-02-28T19:08:42;9.68;;;5.13;;
62010;SDS011;47967;51.756;10.174;2023-02-28T19:12:45;10.27;;;5.40;;
62010;SDS011;47967;51.756;10.174;2023-02-28T19:16:47;11.23;;;6.37;;
62010;SDS011;47967;51.756;10.174;2023-02-28T19:20:51;15.98;;;8.57;;
62010;SDS011;47967;51.756;10.174;2023-02-28T19:24:54;22.27;;;8.88;;
62010;SDS011;47967;51.756;10.174;2023-02-28T19:28:57;16.95;;;9.20;;
62010;SDS011;47967;51.756;10.174;2023-02-28T19:32:59;19.70;;;8.93;;
62010;SDS011;47967;51.756;10.174;2023-02-28T19:37:03;18.63;;;8.63;;
62010;SDS011;47967;51.756;10.174;2023-02-28T19:41:06;20.30;;;8.73;;
62010;SDS011;47967;51.756;10.174;2023-02-28T19:45:11;31.27;;;13.15;;
62010;SDS011;47967;51.756;10.174;2023-02-28T19:49:14;38.35;;;13.32;;
62010;SDS011;47967;51.756;10.174;2023-02-28T19:53:20;38.33;;;14.40;;
62010;SDS011;47967;51.756;10.174;2023-02-28T19:57:22;35.63;;;15.07;;
62010;SDS011;47967;51.756;10.174;2023-02-28T20:01:25;26.23;;;12.83;;
62010;SDS011;47967;51.756;10.174;2023-02-28T20:05:27;17.03;;;9.63;;
62010;SDS011;47967;51.756;10.174;2023-02-28T20:09:31;18.20;;;9.53;;
62010;SDS011;47967;51.756;10.174;2023-02-28T20:13:34;15.38;;;8.13;;
62010;SDS011;47967;51.756;10.174;2023-02-28T20:17:37;14.00;;;8.38;;
62010;SDS011;47967;51.756;10.174;2023-02-28T20:21:42;16.27;;;8.20;;
62010;SDS011;47967;51.756;10.174;2023-02-28T20:25:45;13.60;;;7.47;;
62010;SDS011;47967;51.756;10.174;2023-02-28T20:29:48;15.52;;;8.27;;
62010;SDS011;47967;51.756;10.174;2023-02-28T20:33:51;18.10;;;7.70;;
62010;SDS011;47967;51.756;10.174;2023-02-28T20:37:53;15.10;;;8.13;;
62010;SDS011;47967;51.756;10.174;2023-02-28T20:41:57;19.67;;;8.50;;
62010;SDS011;47967;51.756;10.174;2023-02-28T20:46:00;15.43;;;8.48;;
62010;SDS011;47967;51.756;10.174;2023-02-28T20:50:03;21.48;;;10.43;;
62010;SDS011;47967;51.756;10.174;2023-02-28T20:58:10;17.05;;;7.35;;
62010;SDS011;47967;51.756;10.174;2023-02-28T21:02:14;14.77;;;7.60;;
62010;SDS011;47967;51.756;10.174;2023-02-28T21:06:18;19.45;;;8.13;;
62010;SDS011;47967;51.756;10.174;2023-02-28T21:10:22;15.52;;;7.68;;
62010;SDS011;47967;51.756;10.174;2023-02-28T21:14:25;14.73;;;7.87;;
62010;SDS011;47967;51.756;10.174;2023-02-28T21:18:28;14.60;;;7.35;;
62010;SDS011;47967;51.756;10.174;2023-02-28T21:22:31;26.77;;;11.33;;
62010;SDS011;47967;51.756;10.174;2023-02-28T21:26:33;23.37;;;9.70;;
62010;SDS011;47967;51.756;10.174;2023-02-28T21:30:37;18.25;;;8.77;;
62010;SDS011;47967;51.756;10.174;2023-02-28T21:34:40;14.98;;;8.18;;
62010;SDS011;47967;51.756;10.174;2023-02-28T21:38:43;15.13;;;7.82;;
62010;SDS011;47967;51.756;10.174;2023-02-28T21:42:46;15.85;;;7.70;;
62010;SDS011;47967;51.756;10.174;2023-02-28T21:46:50;17.60;;;7.53;;
62010;SDS011;47967;51.756;10.174;2023-02-28T21:50:55;16.23;;;6.85;;
62010;SDS011;47967;51.756;10.174;2023-02-28T21:54:59;13.77;;;7.03;;
62010;SDS011;47967;51.756;10.174;2023-02-28T21:59:02;12.83;;;6.20;;
